sensor_id;sensor_type;location;lat;lon;timestamp;pressure;altitude;pressure_sealevel;temperature
47484;BMP280;54076;50.322;18.650;2024-03-02T00:03:56;98205.13;;;13.17
47484;BMP280;54076;50.322;18.650;2024-03-02T00:08:58;98198.83;;;13.24
47484;BMP280;54076;50.322;18.650;2024-03-02T00:13:59;98196.64;;;13.32
47484;BMP280;54076;50.322;18.650;2024-03-02T00:19:05;98201.86;;;13.15
47484;BMP280;54076;50.322;18.650;2024-03-02T00:24:32;98204.31;;;13.12
47484;BMP280;54076;50.322;18.650;2024-03-02T00:29:34;98194.52;;;13.11
47484;BMP280;54076;50.322;18.650;2024-03-02T00:34:36;98193.95;;;13.03
47484;BMP280;54076;50.322;18.650;2024-03-02T00:39:36;98195.78;;;12.84
47484;BMP280;54076;50.322;18.650;2024-03-02T00:44:37;98196.63;;;12.80
47484;BMP280;54076;50.322;18.650;2024-03-02T00:49:38;98197.25;;;12.94
47484;BMP280;54076;50.322;18.650;2024-03-02T00:54:39;98191.02;;;12.94
47484;BMP280;54076;50.322;18.650;2024-03-02T00:59:40;98188.32;;;12.61
47484;BMP280;54076;50.322;18.650;2024-03-02T01:04:41;98188.39;;;12.62
47484;BMP280;54076;50.322;18.650;2024-03-02T01:09:42;98192.81;;;12.61
47484;BMP280;54076;50.322;18.650;2024-03-02T01:14:43;98188.88;;;12.57
47484;BMP280;54076;50.322;18.650;2024-03-02T01:19:43;98186.76;;;12.30
47484;BMP280;54076;50.322;18.650;2024-03-02T01:24:45;98181.15;;;12.36
47484;BMP280;54076;50.322;18.650;2024-03-02T01:29:45;98180.04;;;12.32
47484;BMP280;54076;50.322;18.650;2024-03-02T01:34:46;98179.14;;;12.27
47484;BMP280;54076;50.322;18.650;2024-03-02T01:39:47;98166.52;;;12.23
47484;BMP280;54076;50.322;18.650;2024-03-02T01:44:48;98166.98;;;12.09
47484;BMP280;54076;50.322;18.650;2024-03-02T01:49:49;98159.35;;;12.07
47484;BMP280;54076;50.322;18.650;2024-03-02T01:54:51;98159.29;;;11.88
47484;BMP280;54076;50.322;18.650;2024-03-02T01:59:52;98159.60;;;11.85
47484;BMP280;54076;50.322;18.650;2024-03-02T02:04:53;98156.86;;;12.01
47484;BMP280;54076;50.322;18.650;2024-03-02T02:09:54;98164.99;;;11.87
47484;BMP280;54076;50.322;18.650;2024-03-02T02:14:55;98161.77;;;11.76
47484;BMP280;54076;50.322;18.650;2024-03-02T02:19:56;98154.23;;;11.94
47484;BMP280;54076;50.322;18.650;2024-03-02T02:24:57;98158.54;;;11.81
47484;BMP280;54076;50.322;18.650;2024-03-02T02:29:58;98159.13;;;11.83
47484;BMP280;54076;50.322;18.650;2024-03-02T02:34:58;98158.41;;;11.71
47484;BMP280;54076;50.322;18.650;2024-03-02T02:40:00;98155.33;;;11.62
47484;BMP280;54076;50.322;18.650;2024-03-02T02:45:01;98149.59;;;11.62
47484;BMP280;54076;50.322;18.650;2024-03-02T02:50:03;98153.02;;;11.61
47484;BMP280;54076;50.322;18.650;2024-03-02T02:55:05;98151.20;;;11.64
47484;BMP280;54076;50.322;18.650;2024-03-02T03:00:12;98149.49;;;11.73
47484;BMP280;54076;50.322;18.650;2024-03-02T03:05:15;98147.58;;;11.79
47484;BMP280;54076;50.322;18.650;2024-03-02T03:10:16;98149.16;;;11.77
47484;BMP280;54076;50.322;18.650;2024-03-02T03:15:18;98152.77;;;11.85
47484;BMP280;54076;50.322;18.650;2024-03-02T03:20:18;98154.55;;;11.64
47484;BMP280;54076;50.322;18.650;2024-03-02T03:25:22;98145.97;;;11.53
47484;BMP280;54076;50.322;18.650;2024-03-02T03:30:23;98154.59;;;11.56
47484;BMP280;54076;50.322;18.650;2024-03-02T03:35:24;98156.43;;;11.52
47484;BMP280;54076;50.322;18.650;2024-03-02T03:40:25;98157.63;;;11.53
47484;BMP280;54076;50.322;18.650;2024-03-02T03:45:26;98158.95;;;11.52
47484;BMP280;54076;50.322;18.650;2024-03-02T03:50:27;98157.57;;;11.71
47484;BMP280;54076;50.322;18.650;2024-03-02T03:55:28;98156.42;;;11.71
47484;BMP280;54076;50.322;18.650;2024-03-02T04:00:29;98156.73;;;11.85
47484;BMP280;54076;50.322;18.650;2024-03-02T04:05:30;98163.27;;;11.80
47484;BMP280;54076;50.322;18.650;2024-03-02T04:10:31;98157.14;;;11.82
47484;BMP280;54076;50.322;18.650;2024-03-02T04:15:31;98161.74;;;11.69
47484;BMP280;54076;50.322;18.650;2024-03-02T04:20:32;98155.05;;;11.79
47484;BMP280;54076;50.322;18.650;2024-03-02T04:25:33;98153.49;;;11.90
47484;BMP280;54076;50.322;18.650;2024-03-02T04:30:34;98156.52;;;11.80
47484;BMP280;54076;50.322;18.650;2024-03-02T04:35:36;98161.98;;;11.75
47484;BMP280;54076;50.322;18.650;2024-03-02T04:40:37;98162.76;;;11.80
47484;BMP280;54076;50.322;18.650;2024-03-02T04:45:38;98158.52;;;11.87
47484;BMP280;54076;50.322;18.650;2024-03-02T04:50:39;98162.52;;;11.90
47484;BMP280;54076;50.322;18.650;2024-03-02T04:55:40;98159.36;;;11.95
47484;BMP280;54076;50.322;18.650;2024-03-02T05:00:41;98170.75;;;11.73
47484;BMP280;54076;50.322;18.650;2024-03-02T05:05:43;98168.89;;;11.77
47484;BMP280;54076;50.322;18.650;2024-03-02T05:10:45;98161.64;;;11.77
47484;BMP280;54076;50.322;18.650;2024-03-02T05:15:46;98162.70;;;11.96
47484;BMP280;54076;50.322;18.650;2024-03-02T05:20:47;98172.66;;;11.65
47484;BMP280;54076;50.322;18.650;2024-03-02T05:25:48;98180.63;;;11.89
47484;BMP280;54076;50.322;18.650;2024-03-02T05:30:49;98179.98;;;11.96
47484;BMP280;54076;50.322;18.650;2024-03-02T05:35:50;98189.09;;;12.04
47484;BMP280;54076;50.322;18.650;2024-03-02T05:40:51;98188.53;;;12.05
47484;BMP280;54076;50.322;18.650;2024-03-02T05:45:52;98191.39;;;12.16
47484;BMP280;54076;50.322;18.650;2024-03-02T05:50:52;98194.98;;;12.20
47484;BMP280;54076;50.322;18.650;2024-03-02T05:55:53;98196.80;;;12.09
47484;BMP280;54076;50.322;18.650;2024-03-02T06:00:56;98201.63;;;12.28
47484;BMP280;54076;50.322;18.650;2024-03-02T06:05:58;98206.61;;;12.21
47484;BMP280;54076;50.322;18.650;2024-03-02T06:10:59;98206.33;;;11.93
47484;BMP280;54076;50.322;18.650;2024-03-02T06:15:59;98211.58;;;11.94
47484;BMP280;54076;50.322;18.650;2024-03-02T06:21:00;98214.38;;;12.08
47484;BMP280;54076;50.322;18.650;2024-03-02T06:26:04;98217.87;;;12.06
47484;BMP280;54076;50.322;18.650;2024-03-02T06:31:05;98216.74;;;12.04
47484;BMP280;54076;50.322;18.650;2024-03-02T06:36:06;98221.61;;;12.07
47484;BMP280;54076;50.322;18.650;2024-03-02T06:41:10;98229.62;;;12.17
47484;BMP280;54076;50.322;18.650;2024-03-02T06:46:11;98218.45;;;12.33
47484;BMP280;54076;50.322;18.650;2024-03-02T06:51:15;98228.64;;;12.39
47484;BMP280;54076;50.322;18.650;2024-03-02T06:56:16;98224.64;;;12.50
47484;BMP280;54076;50.322;18.650;2024-03-02T07:01:17;98233.08;;;12.45
47484;BMP280;54076;50.322;18.650;2024-03-02T07:06:18;98237.30;;;12.60
47484;BMP280;54076;50.322;18.650;2024-03-02T07:11:19;98244.66;;;12.64
47484;BMP280;54076;50.322;18.650;2024-03-02T07:16:19;98244.37;;;12.73
47484;BMP280;54076;50.322;18.650;2024-03-02T07:21:30;98243.09;;;12.76
47484;BMP280;54076;50.322;18.650;2024-03-02T07:26:32;98235.30;;;12.87
47484;BMP280;54076;50.322;18.650;2024-03-02T07:31:33;98242.45;;;13.00
47484;BMP280;54076;50.322;18.650;2024-03-02T07:36:35;98243.31;;;12.99
47484;BMP280;54076;50.322;18.650;2024-03-02T07:41:37;98244.45;;;13.08
47484;BMP280;54076;50.322;18.650;2024-03-02T07:46:38;98246.44;;;13.17
47484;BMP280;54076;50.322;18.650;2024-03-02T07:51:39;98249.02;;;13.36
47484;BMP280;54076;50.322;18.650;2024-03-02T07:56:40;98257.43;;;13.67
47484;BMP280;54076;50.322;18.650;2024-03-02T08:01:41;98256.12;;;13.66
47484;BMP280;54076;50.322;18.650;2024-03-02T08:06:42;98256.39;;;13.82
47484;BMP280;54076;50.322;18.650;2024-03-02T08:11:43;98256.70;;;14.02
47484;BMP280;54076;50.322;18.650;2024-03-02T08:16:45;98257.39;;;14.10
47484;BMP280;54076;50.322;18.650;2024-03-02T08:21:46;98256.77;;;14.47
47484;BMP280;54076;50.322;18.650;2024-03-02T08:26:47;98260.67;;;14.48
47484;BMP280;54076;50.322;18.650;2024-03-02T08:31:47;98263.98;;;14.68
47484;BMP280;54076;50.322;18.650;2024-03-02T08:36:50;98268.58;;;14.65
47484;BMP280;54076;50.322;18.650;2024-03-02T08:41:50;98267.85;;;14.60
47484;BMP280;54076;50.322;18.650;2024-03-02T08:46:52;98261.89;;;14.47
47484;BMP280;54076;50.322;18.650;2024-03-02T08:51:53;98264.79;;;14.59
47484;BMP280;54076;50.322;18.650;2024-03-02T08:56:56;98259.77;;;14.93
47484;BMP280;54076;50.322;18.650;2024-03-02T09:01:57;98258.73;;;15.03
47484;BMP280;54076;50.322;18.650;2024-03-02T09:06:58;98263.70;;;14.91
47484;BMP280;54076;50.322;18.650;2024-03-02T09:11:59;98265.35;;;14.95
47484;BMP280;54076;50.322;18.650;2024-03-02T09:17:00;98268.64;;;14.97
47484;BMP280;54076;50.322;18.650;2024-03-02T09:22:01;98271.23;;;15.30
47484;BMP280;54076;50.322;18.650;2024-03-02T09:27:04;98272.98;;;15.19
47484;BMP280;54076;50.322;18.650;2024-03-02T09:37:07;98277.27;;;15.31
47484;BMP280;54076;50.322;18.650;2024-03-02T09:42:08;98280.14;;;15.57
47484;BMP280;54076;50.322;18.650;2024-03-02T09:47:09;98277.55;;;15.79
47484;BMP280;54076;50.322;18.650;2024-03-02T09:52:10;98279.69;;;16.01
47484;BMP280;54076;50.322;18.650;2024-03-02T09:57:11;98284.14;;;15.90
47484;BMP280;54076;50.322;18.650;2024-03-02T10:02:12;98277.88;;;16.16
47484;BMP280;54076;50.322;18.650;2024-03-02T10:07:16;98281.02;;;16.12
47484;BMP280;54076;50.322;18.650;2024-03-02T10:12:18;98276.02;;;16.36
47484;BMP280;54076;50.322;18.650;2024-03-02T10:17:19;98281.39;;;16.44
47484;BMP280;54076;50.322;18.650;2024-03-02T10:22:23;98277.38;;;16.51
47484;BMP280;54076;50.322;18.650;2024-03-02T10:27:27;98276.59;;;16.81
47484;BMP280;54076;50.322;18.650;2024-03-02T10:32:28;98276.29;;;17.10
47484;BMP280;54076;50.322;18.650;2024-03-02T10:37:29;98281.77;;;16.99
47484;BMP280;54076;50.322;18.650;2024-03-02T10:42:30;98278.55;;;16.91
47484;BMP280;54076;50.322;18.650;2024-03-02T10:47:33;98281.00;;;16.71
47484;BMP280;54076;50.322;18.650;2024-03-02T10:52:37;98279.48;;;16.86
47484;BMP280;54076;50.322;18.650;2024-03-02T10:57:53;98282.55;;;16.78
47484;BMP280;54076;50.322;18.650;2024-03-02T11:02:58;98278.88;;;16.94
47484;BMP280;54076;50.322;18.650;2024-03-02T11:08:14;98276.38;;;17.11
47484;BMP280;54076;50.322;18.650;2024-03-02T11:13:24;98276.73;;;17.18
47484;BMP280;54076;50.322;18.650;2024-03-02T11:18:28;98279.73;;;16.69
47484;BMP280;54076;50.322;18.650;2024-03-02T11:23:33;98281.02;;;16.69
47484;BMP280;54076;50.322;18.650;2024-03-02T11:28:35;98282.27;;;16.40
47484;BMP280;54076;50.322;18.650;2024-03-02T11:33:37;98289.42;;;16.15
47484;BMP280;54076;50.322;18.650;2024-03-02T11:38:38;98284.48;;;15.88
47484;BMP280;54076;50.322;18.650;2024-03-02T11:43:40;98275.83;;;16.19
47484;BMP280;54076;50.322;18.650;2024-03-02T11:48:41;98278.98;;;16.44
47484;BMP280;54076;50.322;18.650;2024-03-02T11:53:42;98280.17;;;16.40
47484;BMP280;54076;50.322;18.650;2024-03-02T11:58:44;98276.50;;;16.17
47484;BMP280;54076;50.322;18.650;2024-03-02T12:03:45;98272.06;;;16.56
47484;BMP280;54076;50.322;18.650;2024-03-02T12:08:46;98274.98;;;16.81
47484;BMP280;54076;50.322;18.650;2024-03-02T12:13:53;98269.25;;;16.83
47484;BMP280;54076;50.322;18.650;2024-03-02T12:18:58;98272.45;;;16.81
47484;BMP280;54076;50.322;18.650;2024-03-02T12:23:59;98266.06;;;16.97
47484;BMP280;54076;50.322;18.650;2024-03-02T12:28:59;98267.36;;;16.70
47484;BMP280;54076;50.322;18.650;2024-03-02T12:34:03;98266.38;;;16.59
47484;BMP280;54076;50.322;18.650;2024-03-02T12:39:04;98263.53;;;16.58
47484;BMP280;54076;50.322;18.650;2024-03-02T12:44:05;98266.88;;;16.57
47484;BMP280;54076;50.322;18.650;2024-03-02T12:49:11;98269.75;;;16.81
47484;BMP280;54076;50.322;18.650;2024-03-02T12:54:12;98265.27;;;16.73
47484;BMP280;54076;50.322;18.650;2024-03-02T12:59:19;98266.20;;;16.57
47484;BMP280;54076;50.322;18.650;2024-03-02T13:04:24;98260.44;;;17.22
47484;BMP280;54076;50.322;18.650;2024-03-02T13:09:25;98256.41;;;16.95
47484;BMP280;54076;50.322;18.650;2024-03-02T13:14:27;98252.59;;;16.92
47484;BMP280;54076;50.322;18.650;2024-03-02T13:19:28;98257.25;;;16.79
47484;BMP280;54076;50.322;18.650;2024-03-02T13:24:31;98258.57;;;16.60
47484;BMP280;54076;50.322;18.650;2024-03-02T13:29:33;98257.33;;;16.15
47484;BMP280;54076;50.322;18.650;2024-03-02T13:34:34;98257.44;;;16.18
47484;BMP280;54076;50.322;18.650;2024-03-02T13:39:35;98260.13;;;16.22
47484;BMP280;54076;50.322;18.650;2024-03-02T13:44:46;98263.04;;;15.74
47484;BMP280;54076;50.322;18.650;2024-03-02T13:49:48;98266.11;;;15.97
47484;BMP280;54076;50.322;18.650;2024-03-02T13:54:49;98267.45;;;15.68
47484;BMP280;54076;50.322;18.650;2024-03-02T13:59:52;98273.25;;;15.60
47484;BMP280;54076;50.322;18.650;2024-03-02T14:04:54;98278.87;;;15.44
47484;BMP280;54076;50.322;18.650;2024-03-02T14:09:55;98275.00;;;15.60
47484;BMP280;54076;50.322;18.650;2024-03-02T14:14:56;98266.90;;;15.45
47484;BMP280;54076;50.322;18.650;2024-03-02T14:19:58;98262.37;;;15.16
47484;BMP280;54076;50.322;18.650;2024-03-02T14:24:59;98261.84;;;15.15
47484;BMP280;54076;50.322;18.650;2024-03-02T14:30:00;98271.55;;;15.08
47484;BMP280;54076;50.322;18.650;2024-03-02T14:35:01;98273.84;;;15.07
47484;BMP280;54076;50.322;18.650;2024-03-02T14:40:03;98274.09;;;14.82
47484;BMP280;54076;50.322;18.650;2024-03-02T14:45:07;98270.08;;;14.98
47484;BMP280;54076;50.322;18.650;2024-03-02T14:50:08;98264.27;;;14.91
47484;BMP280;54076;50.322;18.650;2024-03-02T14:55:10;98264.02;;;15.02
47484;BMP280;54076;50.322;18.650;2024-03-02T15:00:11;98264.39;;;15.21
47484;BMP280;54076;50.322;18.650;2024-03-02T15:05:12;98256.55;;;15.13
47484;BMP280;54076;50.322;18.650;2024-03-02T15:10:13;98247.27;;;15.12
47484;BMP280;54076;50.322;18.650;2024-03-02T15:15:14;98251.79;;;15.37
47484;BMP280;54076;50.322;18.650;2024-03-02T15:20:15;98243.67;;;15.19
47484;BMP280;54076;50.322;18.650;2024-03-02T15:25:16;98247.71;;;15.35
47484;BMP280;54076;50.322;18.650;2024-03-02T15:30:17;98239.91;;;15.36
47484;BMP280;54076;50.322;18.650;2024-03-02T15:35:18;98230.97;;;15.37
47484;BMP280;54076;50.322;18.650;2024-03-02T15:40:19;98238.48;;;15.23
47484;BMP280;54076;50.322;18.650;2024-03-02T15:45:20;98234.11;;;15.21
47484;BMP280;54076;50.322;18.650;2024-03-02T15:50:21;98229.27;;;15.41
47484;BMP280;54076;50.322;18.650;2024-03-02T15:55:22;98230.69;;;15.33
47484;BMP280;54076;50.322;18.650;2024-03-02T16:00:23;98231.00;;;15.42
47484;BMP280;54076;50.322;18.650;2024-03-02T16:05:24;98244.84;;;15.19
47484;BMP280;54076;50.322;18.650;2024-03-02T16:10:24;98251.88;;;15.20
47484;BMP280;54076;50.322;18.650;2024-03-02T16:15:28;98251.46;;;15.07
47484;BMP280;54076;50.322;18.650;2024-03-02T16:20:29;98251.92;;;15.15
47484;BMP280;54076;50.322;18.650;2024-03-02T16:25:30;98253.65;;;15.01
47484;BMP280;54076;50.322;18.650;2024-03-02T16:30:31;98256.89;;;15.15
47484;BMP280;54076;50.322;18.650;2024-03-02T16:35:32;98256.52;;;15.11
47484;BMP280;54076;50.322;18.650;2024-03-02T16:40:33;98255.23;;;15.10
47484;BMP280;54076;50.322;18.650;2024-03-02T16:45:34;98259.88;;;15.07
47484;BMP280;54076;50.322;18.650;2024-03-02T16:50:35;98262.36;;;15.16
47484;BMP280;54076;50.322;18.650;2024-03-02T16:55:36;98260.43;;;15.14
47484;BMP280;54076;50.322;18.650;2024-03-02T17:00:37;98260.90;;;15.02
47484;BMP280;54076;50.322;18.650;2024-03-02T17:05:38;98253.84;;;15.01
47484;BMP280;54076;50.322;18.650;2024-03-02T17:10:39;98265.16;;;15.08
47484;BMP280;54076;50.322;18.650;2024-03-02T17:15:41;98267.09;;;14.92
47484;BMP280;54076;50.322;18.650;2024-03-02T17:20:41;98266.40;;;14.88
47484;BMP280;54076;50.322;18.650;2024-03-02T17:25:42;98266.54;;;14.81
47484;BMP280;54076;50.322;18.650;2024-03-02T17:30:44;98256.33;;;14.81
47484;BMP280;54076;50.322;18.650;2024-03-02T17:35:45;98260.76;;;14.85
47484;BMP280;54076;50.322;18.650;2024-03-02T17:40:48;98255.40;;;14.94
47484;BMP280;54076;50.322;18.650;2024-03-02T17:45:48;98250.38;;;14.92
47484;BMP280;54076;50.322;18.650;2024-03-02T17:50:50;98251.64;;;14.84
47484;BMP280;54076;50.322;18.650;2024-03-02T17:55:50;98251.89;;;14.79
47484;BMP280;54076;50.322;18.650;2024-03-02T18:00:51;98247.73;;;14.68
47484;BMP280;54076;50.322;18.650;2024-03-02T18:05:52;98245.16;;;14.70
47484;BMP280;54076;50.322;18.650;2024-03-02T18:10:53;98249.59;;;14.83
47484;BMP280;54076;50.322;18.650;2024-03-02T18:15:55;98249.38;;;14.84
47484;BMP280;54076;50.322;18.650;2024-03-02T18:20:56;98250.05;;;14.82
47484;BMP280;54076;50.322;18.650;2024-03-02T18:25:57;98246.12;;;14.72
47484;BMP280;54076;50.322;18.650;2024-03-02T18:30:58;98244.35;;;14.72
47484;BMP280;54076;50.322;18.650;2024-03-02T18:35:59;98242.55;;;14.70
47484;BMP280;54076;50.322;18.650;2024-03-02T18:41:00;98242.02;;;14.56
47484;BMP280;54076;50.322;18.650;2024-03-02T18:46:01;98242.90;;;14.53
47484;BMP280;54076;50.322;18.650;2024-03-02T18:51:07;98248.60;;;14.52
47484;BMP280;54076;50.322;18.650;2024-03-02T18:56:09;98243.83;;;14.47
47484;BMP280;54076;50.322;18.650;2024-03-02T19:01:11;98237.63;;;14.24
47484;BMP280;54076;50.322;18.650;2024-03-02T19:06:15;98235.22;;;14.25
47484;BMP280;54076;50.322;18.650;2024-03-02T19:11:17;98237.64;;;14.21
47484;BMP280;54076;50.322;18.650;2024-03-02T19:16:19;98238.89;;;14.23
47484;BMP280;54076;50.322;18.650;2024-03-02T19:21:20;98239.64;;;14.18
47484;BMP280;54076;50.322;18.650;2024-03-02T19:26:21;98232.17;;;14.14
47484;BMP280;54076;50.322;18.650;2024-03-02T19:31:22;98229.66;;;13.98
47484;BMP280;54076;50.322;18.650;2024-03-02T19:36:23;98228.80;;;13.85
47484;BMP280;54076;50.322;18.650;2024-03-02T19:41:25;98228.25;;;13.85
47484;BMP280;54076;50.322;18.650;2024-03-02T19:46:26;98222.25;;;13.77
47484;BMP280;54076;50.322;18.650;2024-03-02T19:51:27;98225.73;;;13.69
47484;BMP280;54076;50.322;18.650;2024-03-02T19:56:28;98226.17;;;13.62
47484;BMP280;54076;50.322;18.650;2024-03-02T20:01:29;98220.82;;;13.41
47484;BMP280;54076;50.322;18.650;2024-03-02T20:06:30;98218.59;;;13.41
47484;BMP280;54076;50.322;18.650;2024-03-02T20:11:31;98222.68;;;13.42
47484;BMP280;54076;50.322;18.650;2024-03-02T20:16:32;98219.92;;;13.28
47484;BMP280;54076;50.322;18.650;2024-03-02T20:21:33;98221.05;;;13.31
47484;BMP280;54076;50.322;18.650;2024-03-02T20:26:34;98220.35;;;13.35
47484;BMP280;54076;50.322;18.650;2024-03-02T20:31:37;98217.24;;;13.32
47484;BMP280;54076;50.322;18.650;2024-03-02T20:36:38;98217.41;;;13.27
47484;BMP280;54076;50.322;18.650;2024-03-02T20:41:39;98217.38;;;13.27
47484;BMP280;54076;50.322;18.650;2024-03-02T20:46:40;98217.02;;;13.11
47484;BMP280;54076;50.322;18.650;2024-03-02T20:51:41;98225.09;;;13.02
47484;BMP280;54076;50.322;18.650;2024-03-02T20:56:45;98227.30;;;13.07
47484;BMP280;54076;50.322;18.650;2024-03-02T21:01:47;98222.35;;;13.11
47484;BMP280;54076;50.322;18.650;2024-03-02T21:06:48;98222.52;;;13.18
47484;BMP280;54076;50.322;18.650;2024-03-02T21:11:49;98220.58;;;13.20
47484;BMP280;54076;50.322;18.650;2024-03-02T21:16:50;98220.80;;;13.25
47484;BMP280;54076;50.322;18.650;2024-03-02T21:21:51;98219.46;;;13.29
47484;BMP280;54076;50.322;18.650;2024-03-02T21:26:52;98220.69;;;13.28
47484;BMP280;54076;50.322;18.650;2024-03-02T21:31:53;98224.32;;;13.35
47484;BMP280;54076;50.322;18.650;2024-03-02T21:36:55;98219.94;;;13.48
47484;BMP280;54076;50.322;18.650;2024-03-02T21:41:58;98221.44;;;13.45
47484;BMP280;54076;50.322;18.650;2024-03-02T21:46:59;98229.21;;;13.44
47484;BMP280;54076;50.322;18.650;2024-03-02T21:52:00;98226.69;;;13.46
47484;BMP280;54076;50.322;18.650;2024-03-02T21:57:04;98223.48;;;13.50
47484;BMP280;54076;50.322;18.650;2024-03-02T22:02:06;98228.77;;;13.49
47484;BMP280;54076;50.322;18.650;2024-03-02T22:07:07;98225.05;;;13.27
47484;BMP280;54076;50.322;18.650;2024-03-02T22:12:08;98227.80;;;13.34
47484;BMP280;54076;50.322;18.650;2024-03-02T22:17:12;98225.28;;;13.43
47484;BMP280;54076;50.322;18.650;2024-03-02T22:22:13;98225.19;;;13.52
47484;BMP280;54076;50.322;18.650;2024-03-02T22:27:13;98219.23;;;13.49
47484;BMP280;54076;50.322;18.650;2024-03-02T22:32:14;98216.16;;;13.44
47484;BMP280;54076;50.322;18.650;2024-03-02T22:37:15;98216.14;;;13.46
47484;BMP280;54076;50.322;18.650;2024-03-02T22:42:18;98212.85;;;13.40
47484;BMP280;54076;50.322;18.650;2024-03-02T22:47:19;98214.48;;;13.50
47484;BMP280;54076;50.322;18.650;2024-03-02T22:52:20;98214.11;;;13.51
47484;BMP280;54076;50.322;18.650;2024-03-02T22:57:21;98212.43;;;13.40
47484;BMP280;54076;50.322;18.650;2024-03-02T23:02:22;98213.12;;;13.39
47484;BMP280;54076;50.322;18.650;2024-03-02T23:07:24;98211.77;;;13.35
47484;BMP280;54076;50.322;18.650;2024-03-02T23:12:25;98212.13;;;13.26
47484;BMP280;54076;50.322;18.650;2024-03-02T23:17:26;98213.10;;;13.26
47484;BMP280;54076;50.322;18.650;2024-03-02T23:22:27;98211.73;;;13.38
47484;BMP280;54076;50.322;18.650;2024-03-02T23:27:27;98209.63;;;13.32
47484;BMP280;54076;50.322;18.650;2024-03-02T23:32:28;98208.44;;;13.31
47484;BMP280;54076;50.322;18.650;2024-03-02T23:37:30;98207.70;;;13.29
47484;BMP280;54076;50.322;18.650;2024-03-02T23:42:32;98204.33;;;13.36
47484;BMP280;54076;50.322;18.650;2024-03-02T23:47:33;98199.09;;;13.38
47484;BMP280;54076;50.322;18.650;2024-03-02T23:52:34;98197.73;;;13.15
47484;BMP280;54076;50.322;18.650;2024-03-02T23:57:52;98199.63;;;13.25
